createdAt,value
2017-08-14T00:00:13.594Z,5.03
2017-08-14T00:02:41.741Z,5.20
2017-08-14T00:05:10.669Z,5.28
2017-08-14T00:07:38.863Z,4.40
2017-08-14T00:10:07.034Z,4.65
2017-08-14T00:12:38.554Z,4.90
2017-08-14T00:15:06.779Z,5.90
2017-08-14T00:17:34.922Z,4.70
2017-08-14T00:20:03.074Z,4.82
2017-08-14T00:22:31.245Z,5.25
2017-08-14T00:25:00.182Z,5.95
2017-08-14T00:27:28.567Z,5.95
2017-08-14T00:29:56.773Z,5.28
2017-08-14T00:32:24.935Z,5.80
2017-08-14T00:34:53.091Z,5.68
2017-08-14T00:37:21.288Z,5.65
2017-08-14T00:39:49.437Z,5.05
2017-08-14T00:42:17.590Z,5.93
2017-08-14T00:44:45.762Z,4.93
2017-08-14T00:47:13.930Z,4.97
2017-08-14T00:49:42.092Z,5.12
2017-08-14T00:52:11.338Z,5.55
2017-08-14T00:54:39.482Z,6.07
2017-08-14T00:57:07.631Z,5.78
2017-08-14T00:59:35.830Z,5.10
2017-08-14T01:02:03.997Z,5.00
2017-08-14T01:04:32.157Z,6.07
2017-08-14T01:07:01.095Z,5.30
2017-08-14T01:09:29.257Z,4.70
2017-08-14T01:11:57.402Z,4.90
2017-08-14T01:14:25.795Z,4.62
2017-08-14T01:16:53.949Z,5.80
2017-08-14T01:19:22.877Z,4.85
2017-08-14T01:21:51.069Z,5.05
2017-08-14T01:24:19.234Z,5.60
2017-08-14T01:26:47.374Z,5.10
2017-08-14T01:29:16.309Z,5.70
2017-08-14T01:31:44.450Z,5.10
2017-08-14T01:34:12.596Z,5.05
2017-08-14T01:36:41.541Z,4.70
2017-08-14T01:39:09.684Z,5.22
2017-08-14T01:41:37.835Z,5.25
2017-08-14T01:44:06.803Z,4.57
2017-08-14T01:46:34.964Z,4.90
2017-08-14T01:49:03.135Z,5.15
2017-08-14T01:51:31.319Z,4.97
2017-08-14T01:53:59.457Z,5.30
2017-08-14T01:56:27.602Z,5.00
2017-08-14T01:58:56.558Z,4.85
2017-08-14T02:01:24.697Z,5.65
2017-08-14T02:03:52.839Z,6.47
2017-08-14T02:06:21.030Z,5.32
2017-08-14T02:08:49.948Z,5.35
2017-08-14T02:11:18.097Z,4.95
2017-08-14T02:13:46.287Z,5.03
2017-08-14T02:16:14.453Z,4.70
2017-08-14T02:18:42.602Z,4.97
2017-08-14T02:21:10.796Z,5.07
2017-08-14T02:23:38.969Z,5.90
2017-08-14T02:26:07.126Z,4.90
2017-08-14T02:28:35.671Z,5.75
2017-08-14T02:31:03.816Z,5.50
2017-08-14T02:33:31.980Z,5.40
2017-08-14T02:36:00.155Z,5.68
2017-08-14T02:38:28.325Z,5.75
2017-08-14T02:40:57.257Z,6.25
2017-08-14T02:43:25.427Z,5.82
2017-08-14T02:45:53.589Z,5.60
2017-08-14T02:48:21.757Z,5.40
2017-08-14T02:50:49.956Z,5.45
2017-08-14T02:53:18.125Z,5.95
2017-08-14T02:55:46.274Z,5.93
2017-08-14T02:58:14.453Z,5.60
2017-08-14T03:00:42.601Z,5.65
2017-08-14T03:03:11.866Z,6.35
2017-08-14T03:05:40.052Z,5.55
2017-08-14T03:08:08.217Z,5.90
2017-08-14T03:10:36.387Z,5.40
2017-08-14T03:13:04.565Z,5.45
2017-08-14T03:15:32.724Z,5.40
2017-08-14T03:18:01.735Z,6.85
2017-08-14T03:20:29.928Z,5.47
2017-08-14T03:22:58.093Z,5.47
2017-08-14T03:25:26.272Z,5.37
2017-08-14T03:27:54.450Z,5.60
2017-08-14T03:30:22.619Z,6.00
2017-08-14T03:32:51.554Z,6.00
2017-08-14T03:35:19.736Z,5.93
2017-08-14T03:37:47.878Z,6.47
2017-08-14T03:40:16.814Z,5.43
2017-08-14T03:42:45.002Z,5.62
2017-08-14T03:45:13.145Z,5.68
2017-08-14T03:47:41.307Z,5.85
2017-08-14T03:50:10.255Z,5.82
2017-08-14T03:52:38.426Z,5.65
2017-08-14T03:55:06.602Z,5.90
2017-08-14T03:57:34.789Z,6.10
2017-08-14T04:00:02.939Z,5.95
2017-08-14T04:02:31.106Z,6.00
2017-08-14T04:04:59.293Z,5.55
2017-08-14T04:07:27.445Z,6.60
2017-08-14T04:09:55.610Z,5.62
2017-08-14T04:12:23.789Z,5.93
2017-08-14T04:14:52.209Z,6.22
2017-08-14T04:17:20.399Z,5.80
2017-08-14T04:19:48.581Z,6.30
2017-08-14T04:22:16.741Z,5.78
2017-08-14T04:24:44.882Z,5.87
2017-08-14T04:27:13.056Z,6.85
2017-08-14T04:29:41.211Z,9.95
2017-08-14T04:32:09.365Z,8.95
2017-08-14T04:34:38.312Z,7.40
2017-08-14T04:37:06.483Z,6.78
2017-08-14T04:39:34.883Z,6.80
2017-08-14T04:42:03.076Z,6.43
2017-08-14T04:44:31.221Z,6.95
2017-08-14T04:47:00.138Z,6.78
2017-08-14T04:49:28.330Z,7.47
2017-08-14T04:51:56.475Z,6.40
2017-08-14T04:54:24.626Z,6.80
2017-08-14T04:56:53.587Z,6.10
2017-08-14T04:59:21.738Z,6.32
2017-08-14T05:01:49.878Z,6.85
2017-08-14T05:04:18.066Z,6.80
2017-08-14T05:06:46.237Z,7.00
2017-08-14T05:09:14.418Z,5.90
2017-08-14T05:11:43.945Z,6.72
2017-08-14T05:14:12.114Z,5.95
2017-08-14T05:16:40.264Z,6.95
2017-08-14T05:19:09.232Z,5.90
2017-08-14T05:21:37.399Z,7.10
2017-08-14T05:24:05.541Z,6.45
2017-08-14T05:26:33.737Z,6.55
2017-08-14T05:29:01.900Z,6.78
2017-08-14T05:31:30.052Z,5.55
2017-08-14T05:33:58.248Z,6.10
2017-08-14T05:36:26.402Z,5.53
2017-08-14T05:38:54.546Z,4.70
2017-08-14T05:41:22.739Z,5.25
2017-08-14T05:43:51.674Z,6.05
2017-08-14T05:46:19.842Z,4.70
2017-08-14T05:48:48.030Z,5.90
2017-08-14T05:51:16.179Z,4.70
2017-08-14T05:53:44.325Z,5.20
2017-08-14T05:56:13.282Z,4.90
2017-08-14T05:58:41.433Z,5.00
2017-08-14T06:01:09.586Z,4.20
2017-08-14T06:03:37.757Z,5.57
2017-08-14T06:06:05.920Z,5.28
2017-08-14T06:08:34.827Z,4.55
2017-08-14T06:11:03.017Z,4.65
2017-08-14T06:13:31.182Z,4.50
2017-08-14T06:15:59.324Z,3.78
2017-08-14T06:18:28.285Z,4.10
2017-08-14T06:20:56.454Z,3.80
2017-08-14T06:23:24.607Z,3.37
2017-08-14T06:25:52.786Z,3.92
2017-08-14T06:28:20.948Z,2.92
2017-08-14T06:30:49.096Z,3.20
2017-08-14T06:33:18.347Z,3.60
2017-08-14T06:35:46.488Z,3.20
2017-08-14T06:38:14.629Z,3.05
2017-08-14T06:40:43.598Z,3.90
2017-08-14T06:43:11.742Z,3.00
2017-08-14T06:45:39.909Z,2.87
2017-08-14T06:48:08.100Z,2.97
2017-08-14T06:50:36.247Z,3.30
2017-08-14T06:53:04.411Z,2.72
2017-08-14T06:55:32.590Z,2.75
2017-08-14T06:58:01.520Z,2.75
2017-08-14T07:00:29.662Z,2.83
2017-08-14T07:02:57.842Z,2.70
2017-08-14T07:05:26.007Z,2.60
2017-08-14T07:07:54.168Z,2.70
2017-08-14T07:10:23.129Z,2.30
2017-08-14T07:12:51.277Z,2.55
2017-08-14T07:15:19.427Z,2.58
2017-08-14T07:17:47.615Z,2.33
2017-08-14T07:20:15.789Z,2.35
2017-08-14T07:22:43.935Z,2.33
2017-08-14T07:25:12.874Z,1.73
2017-08-14T07:27:41.045Z,2.45
2017-08-14T07:30:09.208Z,2.10
2017-08-14T07:32:37.714Z,1.73
2017-08-14T07:35:05.877Z,1.90
2017-08-14T07:37:34.021Z,1.40
2017-08-14T07:40:02.256Z,2.08
2017-08-14T07:42:30.403Z,1.62
2017-08-14T07:44:58.571Z,1.90
2017-08-14T07:47:26.765Z,1.50
2017-08-14T07:49:54.944Z,1.73
2017-08-14T07:52:23.107Z,1.85
2017-08-14T07:54:51.301Z,2.15
2017-08-14T07:57:19.470Z,1.85
2017-08-14T07:59:47.696Z,1.87
2017-08-14T08:02:15.874Z,1.95
2017-08-14T08:04:44.045Z,1.50
2017-08-14T08:07:12.205Z,1.85
2017-08-14T08:09:41.149Z,1.70
2017-08-14T08:12:09.299Z,1.30
2017-08-14T08:14:37.469Z,1.85
2017-08-14T08:17:05.660Z,1.75
2017-08-14T08:19:33.806Z,1.60
2017-08-14T08:22:01.953Z,1.53
2017-08-14T08:24:30.130Z,2.33
2017-08-14T08:26:59.073Z,1.50
2017-08-14T08:29:27.236Z,1.90
2017-08-14T08:31:55.441Z,1.47
2017-08-14T08:34:23.596Z,1.70
2017-08-14T08:36:51.766Z,1.83
2017-08-14T08:39:19.944Z,1.83
2017-08-14T08:41:48.098Z,1.70
2017-08-14T08:44:16.250Z,1.40
2017-08-14T08:46:44.459Z,2.40
2017-08-14T08:49:12.629Z,2.00
2017-08-14T08:51:40.799Z,1.63
2017-08-14T08:54:09.005Z,1.97
2017-08-14T08:56:37.181Z,1.77
2017-08-14T08:59:05.326Z,1.70
2017-08-14T09:01:33.525Z,1.73
2017-08-14T09:04:01.674Z,1.80
2017-08-14T09:06:29.819Z,1.73
2017-08-14T09:08:58.762Z,2.03
2017-08-14T09:11:26.916Z,1.83
2017-08-14T09:13:55.064Z,1.60
2017-08-14T09:16:24.020Z,1.47
2017-08-14T09:18:52.196Z,1.70
2017-08-14T09:21:20.354Z,1.80
2017-08-14T09:23:48.543Z,1.43
2017-08-14T09:26:16.691Z,1.60
2017-08-14T09:28:44.886Z,1.50
2017-08-14T09:31:13.076Z,1.43
2017-08-14T09:33:41.241Z,1.30
2017-08-14T09:36:09.404Z,1.83
2017-08-14T09:38:37.599Z,1.50
2017-08-14T09:41:05.772Z,1.70
2017-08-14T09:43:33.939Z,1.70
2017-08-14T09:46:02.152Z,1.60
2017-08-14T09:48:31.071Z,1.50
2017-08-14T09:50:59.242Z,1.60
2017-08-14T09:53:27.442Z,1.73
2017-08-14T09:55:55.586Z,1.70
2017-08-14T09:58:23.735Z,1.40
2017-08-14T10:00:51.924Z,1.33
2017-08-14T10:03:20.857Z,1.30
2017-08-14T10:05:49.030Z,1.37
2017-08-14T10:08:17.203Z,1.50
2017-08-14T10:10:45.343Z,1.50
2017-08-14T10:13:14.256Z,1.70
2017-08-14T10:15:42.429Z,1.60
2017-08-14T10:18:10.575Z,1.60
2017-08-14T10:20:39.493Z,1.50
2017-08-14T10:23:07.698Z,1.30
2017-08-14T10:25:35.882Z,1.60
2017-08-14T10:28:04.034Z,1.40
2017-08-14T10:30:32.237Z,1.40
2017-08-14T10:33:00.402Z,1.63
2017-08-14T10:35:28.573Z,1.50
2017-08-14T10:37:56.765Z,1.77
2017-08-14T10:40:24.929Z,1.43
2017-08-14T10:42:53.405Z,1.73
2017-08-14T10:45:21.584Z,1.30
2017-08-14T10:47:49.725Z,1.13
2017-08-14T10:50:17.882Z,1.63
2017-08-14T10:52:46.073Z,1.67
2017-08-14T10:55:14.240Z,1.60
2017-08-14T10:57:42.520Z,1.53
2017-08-14T11:00:10.708Z,1.37
2017-08-14T11:02:38.872Z,1.67
2017-08-14T11:05:07.021Z,1.67
2017-08-14T11:07:35.981Z,1.80
2017-08-14T11:10:04.142Z,1.50
2017-08-14T11:12:32.307Z,1.60
2017-08-14T11:15:00.510Z,1.30
2017-08-14T11:17:28.654Z,1.30
2017-08-14T11:19:56.802Z,1.33
2017-08-14T11:22:24.982Z,1.20
2017-08-14T11:24:53.346Z,1.10
2017-08-14T11:27:22.249Z,1.07
2017-08-14T11:29:50.420Z,1.40
2017-08-14T11:32:18.561Z,1.10
2017-08-14T11:34:46.721Z,1.10
2017-08-14T11:37:14.928Z,1.20
2017-08-14T11:39:43.842Z,1.47
2017-08-14T11:42:12.003Z,1.57
2017-08-14T11:44:40.182Z,1.47
2017-08-14T11:47:08.322Z,1.73
2017-08-14T11:49:36.462Z,1.20
2017-08-14T11:52:04.649Z,1.30
2017-08-14T11:54:32.821Z,1.60
2017-08-14T11:57:00.962Z,1.23
2017-08-14T11:59:29.157Z,1.53
2017-08-14T12:01:57.308Z,1.63
2017-08-14T12:04:25.451Z,1.30
2017-08-14T12:06:54.553Z,1.30
2017-08-14T12:09:23.470Z,3.67
2017-08-14T12:11:51.614Z,1.67
2017-08-14T12:14:20.578Z,1.90
2017-08-14T12:16:48.746Z,1.73
2017-08-14T12:19:16.893Z,1.37
2017-08-14T12:21:45.087Z,1.63
2017-08-14T12:24:13.230Z,1.80
2017-08-14T12:26:41.384Z,1.40
2017-08-14T12:29:09.565Z,1.50
2017-08-14T12:31:37.711Z,1.53
2017-08-14T12:34:05.883Z,1.70
2017-08-14T12:36:34.059Z,1.93
2017-08-14T12:39:02.225Z,1.80
2017-08-14T12:41:30.379Z,2.30
2017-08-14T12:43:58.562Z,1.70
2017-08-14T12:46:26.729Z,1.50
2017-08-14T12:48:54.900Z,1.80
2017-08-14T12:51:23.107Z,1.50
2017-08-14T12:53:51.284Z,2.40
2017-08-14T12:56:19.435Z,1.63
2017-08-14T12:58:47.651Z,1.63
2017-08-14T13:01:15.835Z,1.85
2017-08-14T13:03:43.998Z,2.20
2017-08-14T13:06:12.950Z,1.58
2017-08-14T13:08:41.105Z,1.87
2017-08-14T13:11:09.507Z,1.85
2017-08-14T13:13:37.705Z,1.80
2017-08-14T13:16:06.178Z,1.92
2017-08-14T13:18:34.349Z,2.15
2017-08-14T13:21:02.553Z,1.73
2017-08-14T13:23:31.498Z,2.30
2017-08-14T13:25:59.665Z,1.60
2017-08-14T13:28:27.858Z,1.70
2017-08-14T13:30:56.007Z,2.25
2017-08-14T13:33:24.171Z,1.83
2017-08-14T13:35:52.346Z,2.05
2017-08-14T13:38:20.522Z,1.90
2017-08-14T13:40:48.694Z,1.80
2017-08-14T13:43:16.900Z,1.60
2017-08-14T13:45:45.072Z,2.03
2017-08-14T13:48:13.225Z,2.20
2017-08-14T13:50:41.399Z,2.00
2017-08-14T13:53:09.552Z,2.00
2017-08-14T13:55:37.707Z,1.80
2017-08-14T13:58:06.652Z,1.70
2017-08-14T14:00:34.820Z,1.87
2017-08-14T14:03:03.220Z,1.90
2017-08-14T14:05:31.403Z,2.20
2017-08-14T14:07:59.584Z,2.40
2017-08-14T14:10:27.758Z,2.37
2017-08-14T14:12:55.970Z,2.08
2017-08-14T14:15:24.141Z,2.00
2017-08-14T14:17:53.081Z,2.40
2017-08-14T14:20:21.280Z,2.20
2017-08-14T14:22:49.438Z,2.12
2017-08-14T14:25:17.590Z,2.60
2017-08-14T14:27:45.793Z,2.15
2017-08-14T14:30:13.939Z,2.42
2017-08-14T14:32:42.105Z,1.92
2017-08-14T14:35:10.282Z,2.50
2017-08-14T14:37:38.434Z,2.25
2017-08-14T14:40:07.376Z,2.50
2017-08-14T14:42:35.550Z,2.83
2017-08-14T14:45:03.717Z,2.97
2017-08-14T14:47:34.962Z,2.05
2017-08-14T14:50:03.161Z,2.47
2017-08-14T14:52:31.341Z,2.30
2017-08-14T14:54:59.509Z,2.58
2017-08-14T14:57:28.105Z,2.80
2017-08-14T14:59:56.389Z,2.10
2017-08-14T15:02:24.547Z,2.55
2017-08-14T15:04:52.728Z,2.37
2017-08-14T15:07:20.874Z,2.92
2017-08-14T15:09:49.040Z,2.47
2017-08-14T15:12:17.267Z,2.42
2017-08-14T15:14:46.204Z,2.30
2017-08-14T15:17:14.379Z,2.60
2017-08-14T15:19:42.553Z,2.25
2017-08-14T15:22:10.717Z,2.70
2017-08-14T15:24:38.869Z,2.50
2017-08-14T15:27:07.068Z,2.47
2017-08-14T15:29:35.213Z,2.60
2017-08-14T15:32:03.366Z,2.58
2017-08-14T15:34:31.562Z,2.35
2017-08-14T15:37:00.478Z,2.35
2017-08-14T15:39:28.644Z,2.53
2017-08-14T15:41:56.818Z,2.70
2017-08-14T15:44:24.984Z,2.60
2017-08-14T15:46:53.138Z,3.45
2017-08-14T15:49:22.087Z,2.78
2017-08-14T15:51:50.234Z,3.08
2017-08-14T15:54:18.405Z,2.87
2017-08-14T15:56:46.580Z,2.75
2017-08-14T15:59:14.745Z,2.72
2017-08-14T16:01:42.920Z,2.37
2017-08-14T16:04:11.117Z,2.83
2017-08-14T16:06:39.273Z,2.80
2017-08-14T16:09:07.421Z,2.60
2017-08-14T16:11:35.598Z,3.20
2017-08-14T16:14:04.517Z,3.05
2017-08-14T16:16:32.681Z,2.80
2017-08-14T16:19:00.854Z,2.83
2017-08-14T16:21:29.790Z,2.60
2017-08-14T16:23:57.939Z,3.12
2017-08-14T16:26:26.110Z,2.85
2017-08-14T16:28:54.255Z,2.87
2017-08-14T16:31:23.189Z,2.75
2017-08-14T16:33:51.382Z,3.10
2017-08-14T16:36:19.550Z,3.10
2017-08-14T16:38:47.697Z,2.80
2017-08-14T16:41:15.872Z,2.92
2017-08-14T16:43:44.037Z,2.80
2017-08-14T16:46:12.206Z,3.25
2017-08-14T16:48:41.157Z,3.80
2017-08-14T16:51:09.302Z,3.78
2017-08-14T16:53:37.446Z,2.90
2017-08-14T16:56:06.395Z,3.47
2017-08-14T16:58:34.584Z,3.87
2017-08-14T17:01:02.754Z,3.45
2017-08-14T17:03:30.930Z,3.10
2017-08-14T17:05:59.105Z,3.25
2017-08-14T17:08:27.276Z,3.62
2017-08-14T17:10:55.450Z,3.00
2017-08-14T17:13:23.617Z,2.87
2017-08-14T17:15:51.781Z,3.15
2017-08-14T17:18:19.959Z,2.70
2017-08-14T17:20:48.131Z,3.40
2017-08-14T17:23:16.298Z,3.50
2017-08-14T17:25:44.808Z,3.17
2017-08-14T17:28:12.988Z,3.50
2017-08-14T17:30:41.133Z,3.30
2017-08-14T17:33:09.305Z,3.40
2017-08-14T17:35:37.452Z,3.78
2017-08-14T17:38:05.602Z,3.40
2017-08-14T17:40:34.562Z,4.00
2017-08-14T17:43:02.720Z,3.40
2017-08-14T17:45:30.921Z,3.80
2017-08-14T17:47:59.096Z,2.92
2017-08-14T17:50:27.246Z,3.62
2017-08-14T17:52:55.393Z,3.70
2017-08-14T17:55:23.587Z,3.58
2017-08-14T17:57:51.739Z,4.00
2017-08-14T18:00:19.899Z,3.80
2017-08-14T18:02:48.857Z,3.80
2017-08-14T18:05:17.018Z,2.92
2017-08-14T18:07:45.183Z,3.50
2017-08-14T18:10:13.363Z,4.10
2017-08-14T18:12:41.533Z,4.05
2017-08-14T18:15:10.503Z,4.18
2017-08-14T18:17:38.679Z,3.70
2017-08-14T18:20:06.829Z,3.40
2017-08-14T18:22:35.777Z,4.12
2017-08-14T18:25:03.947Z,3.65
2017-08-14T18:27:32.091Z,4.00
2017-08-14T18:30:00.254Z,3.65
2017-08-14T18:32:28.430Z,4.00
2017-08-14T18:34:56.579Z,3.92
2017-08-14T18:37:25.504Z,3.85
2017-08-14T18:39:53.697Z,4.03
2017-08-14T18:42:21.851Z,4.00
2017-08-14T18:44:50.004Z,4.53
2017-08-14T18:47:18.962Z,4.80
2017-08-14T18:49:47.109Z,4.20
2017-08-14T18:52:15.276Z,4.70
2017-08-14T18:54:43.459Z,4.47
2017-08-14T18:57:11.635Z,3.80
2017-08-14T18:59:39.807Z,4.20
2017-08-14T19:02:08.009Z,4.40
2017-08-14T19:04:36.180Z,5.07
2017-08-14T19:07:04.351Z,4.30
2017-08-14T19:09:33.435Z,4.30
2017-08-14T19:12:00.746Z,4.50
2017-08-14T19:14:29.678Z,4.30
2017-08-14T19:16:57.849Z,5.57
2017-08-14T19:19:26.021Z,4.87
2017-08-14T19:21:54.183Z,4.50
2017-08-14T19:24:22.378Z,4.45
2017-08-14T19:26:50.548Z,4.22
2017-08-14T19:29:18.724Z,4.80
2017-08-14T19:31:46.905Z,5.05
2017-08-14T19:34:15.051Z,4.55
2017-08-14T19:36:43.214Z,4.57
2017-08-14T19:39:11.390Z,4.75
2017-08-14T19:41:39.533Z,3.90
2017-08-14T19:44:07.773Z,4.32
2017-08-14T19:46:35.960Z,3.90
2017-08-14T19:49:04.123Z,4.80
2017-08-14T19:51:32.273Z,4.70
2017-08-14T19:54:00.473Z,3.92
2017-08-14T19:56:28.624Z,4.30
2017-08-14T19:58:56.775Z,4.40
2017-08-14T20:01:25.745Z,5.45
2017-08-14T20:03:53.916Z,4.70
2017-08-14T20:06:22.086Z,4.43
2017-08-14T20:08:50.282Z,4.60
2017-08-14T20:11:19.190Z,4.30
2017-08-14T20:13:48.121Z,4.07
2017-08-14T20:16:16.304Z,4.40
2017-08-14T20:18:44.474Z,4.12
2017-08-14T20:21:12.613Z,4.62
2017-08-14T20:23:40.805Z,4.53
2017-08-14T20:26:08.978Z,4.65
2017-08-14T20:28:37.145Z,4.00
2017-08-14T20:31:05.328Z,4.62
2017-08-14T20:33:33.492Z,4.43
2017-08-14T20:36:01.907Z,4.35
2017-08-14T20:38:30.097Z,4.43
2017-08-14T20:40:58.268Z,4.40
2017-08-14T20:43:26.419Z,5.22
2017-08-14T20:45:54.594Z,5.32
2017-08-14T20:48:22.745Z,3.83
2017-08-14T20:50:50.896Z,5.15
2017-08-14T20:53:19.850Z,4.65
2017-08-14T20:55:48.013Z,5.07
2017-08-14T20:58:16.167Z,4.85
2017-08-14T21:00:44.358Z,4.65
2017-08-14T21:03:12.535Z,4.60
2017-08-14T21:05:40.683Z,4.65
2017-08-14T21:08:08.881Z,4.55
2017-08-14T21:10:37.046Z,4.50
2017-08-14T21:13:05.197Z,4.80
2017-08-14T21:15:33.384Z,4.07
2017-08-14T21:18:01.550Z,5.22
2017-08-14T21:20:29.707Z,4.62
2017-08-14T21:22:58.659Z,4.82
2017-08-14T21:25:26.820Z,5.50
2017-08-14T21:27:54.988Z,4.80
2017-08-14T21:30:23.165Z,4.68
2017-08-14T21:32:51.332Z,4.85
2017-08-14T21:35:19.500Z,4.60
2017-08-14T21:37:47.675Z,5.45
2017-08-14T21:40:15.824Z,4.93
2017-08-14T21:42:44.755Z,4.75
2017-08-14T21:45:12.960Z,5.00
2017-08-14T21:47:41.115Z,4.47
2017-08-14T21:50:09.282Z,5.68
2017-08-14T21:52:37.459Z,5.20
2017-08-14T21:55:05.632Z,5.10
2017-08-14T21:57:33.796Z,4.53
2017-08-14T22:00:01.966Z,4.90
2017-08-14T22:02:30.110Z,5.18
2017-08-14T22:04:59.048Z,5.28
2017-08-14T22:07:27.225Z,5.80
2017-08-14T22:09:55.388Z,4.70
2017-08-14T22:12:23.787Z,4.95
2017-08-14T22:14:51.960Z,5.05
2017-08-14T22:17:20.110Z,4.90
2017-08-14T22:19:48.254Z,4.72
2017-08-14T22:22:17.200Z,5.32
2017-08-14T22:24:45.682Z,5.62
2017-08-14T22:27:13.826Z,5.90
2017-08-14T22:29:42.026Z,5.25
2017-08-14T22:32:10.173Z,5.90
2017-08-14T22:34:38.318Z,5.28
2017-08-14T22:37:07.285Z,5.68
2017-08-14T22:39:35.429Z,6.37
2017-08-14T22:42:03.575Z,6.28
2017-08-14T22:44:32.515Z,5.93
2017-08-14T22:47:00.660Z,5.68
2017-08-14T22:49:28.812Z,5.43
2017-08-14T22:51:57.754Z,5.70
2017-08-14T22:54:25.933Z,5.12
2017-08-14T22:56:54.078Z,5.50
2017-08-14T22:59:22.596Z,5.43
2017-08-14T23:01:50.765Z,5.70
2017-08-14T23:04:18.914Z,5.60
2017-08-14T23:06:47.100Z,5.45
2017-08-14T23:09:15.261Z,5.32
2017-08-14T23:11:43.416Z,5.68
2017-08-14T23:14:11.612Z,6.68
2017-08-14T23:16:39.777Z,5.43
2017-08-14T23:19:07.945Z,6.15
2017-08-14T23:21:36.141Z,5.60
2017-08-14T23:24:04.286Z,5.30
2017-08-14T23:26:32.451Z,5.03
2017-08-14T23:29:00.655Z,5.50
2017-08-14T23:31:28.801Z,5.12
2017-08-14T23:33:57.741Z,5.43
2017-08-14T23:36:25.928Z,5.40
2017-08-14T23:38:54.089Z,5.43
2017-08-14T23:41:22.234Z,5.20
2017-08-14T23:43:50.439Z,5.53
2017-08-14T23:46:18.627Z,5.62
2017-08-14T23:48:46.779Z,5.78
2017-08-14T23:51:14.954Z,5.50
2017-08-14T23:53:43.103Z,5.95
2017-08-14T23:56:11.265Z,5.72
2017-08-14T23:58:40.218Z,5.57
